Time;durP1;ratioP1;P1;durP2;ratioP2;P2;SDS_P1;SDS_P2;PMS_P1;PMS_P2;Temp;Humidity;BMP_temperature;BMP_pressure;BME280_temperature;BME280_humidity;BME280_pressure;Samples;Min_cycle;Max_cycle;Signal;HPM_P1;HPM_P2
2021/04/14 00:00:06;;;;;;;7.60;4.97;;;;;;;0.65;87.81;97058.28;1728050;82;21175;-90
2021/04/14 00:02:36;;;;;;;8.85;5.90;;;;;;;0.67;87.81;97056.27;1731510;82;21540;-93
2021/04/14 00:05:08;;;;;;;7.80;5.33;;;;;;;0.67;87.79;97058.06;1749344;82;21136;-93
2021/04/14 00:07:35;;;;;;;9.55;5.72;;;;;;;0.66;87.74;97055.16;1751281;82;21488;-91
2021/04/14 00:10:04;;;;;;;9.70;5.85;;;;;;;0.66;87.71;97061.69;1727582;82;21160;-92
2021/04/14 00:12:31;;;;;;;8.65;5.78;;;;;;;0.68;87.82;97049.23;1740300;82;21274;-91
2021/04/14 00:14:58;;;;;;;7.10;5.53;;;;;;;0.66;87.74;97059.08;1717721;82;21140;-91
2021/04/14 00:17:25;;;;;;;7.62;5.55;;;;;;;0.67;87.77;97057.56;1737320;82;21694;-92
2021/04/14 00:19:52;;;;;;;7.47;5.15;;;;;;;0.64;87.84;97050.66;1725547;82;21262;-92
2021/04/14 00:22:19;;;;;;;7.50;4.90;;;;;;;0.67;87.72;97052.85;1717835;82;21140;-92
2021/04/14 00:24:46;;;;;;;5.62;4.47;;;;;;;0.67;87.66;97047.12;1728356;82;21169;-91
2021/04/14 00:27:13;;;;;;;5.53;4.15;;;;;;;0.67;87.66;97047.12;1730182;82;21283;-92
2021/04/14 00:29:40;;;;;;;5.95;4.22;;;;;;;0.66;87.60;97045.53;1738047;82;21118;-92
2021/04/14 00:32:07;;;;;;;7.10;4.58;;;;;;;0.65;87.62;97041.31;1746139;82;21528;-93
2021/04/14 00:34:34;;;;;;;6.85;4.17;;;;;;;0.69;87.59;97047.72;1729801;82;21132;-91
2021/04/14 00:37:01;;;;;;;5.92;4.33;;;;;;;0.71;87.60;97042.33;1718372;82;21146;-93
2021/04/14 00:39:28;;;;;;;4.70;3.55;;;;;;;0.71;87.49;97046.23;1727035;82;21121;-94
2021/04/14 00:41:56;;;;;;;5.45;3.98;;;;;;;0.66;87.45;97039.52;1739931;80;21150;-93
2021/04/14 00:44:24;;;;;;;5.55;3.67;;;;;;;0.69;87.39;97046.92;1738538;82;21275;-92
2021/04/14 00:46:52;;;;;;;5.55;4.00;;;;;;;0.72;87.45;97043.92;1733372;82;21279;-92
2021/04/14 00:49:19;;;;;;;5.70;4.17;;;;;;;0.71;87.41;97043.63;1725685;82;21639;-93
2021/04/14 00:51:47;;;;;;;6.53;4.35;;;;;;;0.70;87.39;97044.61;1727091;82;21128;-92
2021/04/14 00:54:15;;;;;;;4.72;3.65;;;;;;;0.72;87.31;97041.31;1716418;82;21261;-91
2021/04/14 00:56:42;;;;;;;6.25;4.08;;;;;;;0.71;87.32;97027.47;1725028;82;21141;-91
2021/04/14 00:59:09;;;;;;;5.95;3.95;;;;;;;0.71;87.32;97032.69;1742495;82;21172;-92
2021/04/14 01:01:36;;;;;;;7.78;4.15;;;;;;;0.71;87.23;97032.69;1738920;82;21650;-93
2021/04/14 01:04:04;;;;;;;5.08;3.90;;;;;;;0.71;87.20;97025.37;1734262;82;21128;-93
2021/04/14 01:06:32;;;;;;;4.62;3.08;;;;;;;0.72;87.20;97030.88;1738557;82;21510;-92
2021/04/14 01:08:59;;;;;;;5.03;3.50;;;;;;;0.71;87.21;97034.50;1722105;82;21149;-93
2021/04/14 01:11:29;;;;;;;6.22;3.75;;;;;;;0.70;87.16;97038.09;1729549;82;21146;-92
2021/04/14 01:13:57;;;;;;;4.60;3.00;;;;;;;0.70;87.12;97026.34;1734973;82;21505;-93
2021/04/14 01:16:24;;;;;;;4.28;3.15;;;;;;;0.72;87.15;97025.16;1740891;82;21514;-93
2021/04/14 01:18:51;;;;;;;6.80;3.95;;;;;;;0.73;87.11;97025.45;1753248;82;21125;-92
2021/04/14 01:21:32;;;;;;;5.53;3.33;;;;;;;0.74;87.09;97032.78;1720827;82;21516;-91
2021/04/14 01:24:00;;;;;;;4.42;3.85;;;;;;;0.78;87.14;97032.16;1723911;82;21275;-93
2021/04/14 01:26:27;;;;;;;6.00;4.15;;;;;;;0.77;87.00;97032.36;1740904;82;21133;-92
2021/04/14 01:28:54;;;;;;;5.25;4.28;;;;;;;0.75;86.91;97023.94;1738010;82;21136;-92
2021/04/14 01:31:32;;;;;;;7.47;5.33;;;;;;;0.70;86.86;97020.63;1741274;82;21140;-92
2021/04/14 01:33:53;;;;;;;5.58;3.92;;;;;;;0.67;86.88;97025.45;1710158;82;21157;-91
2021/04/14 01:36:20;;;;;;;6.35;3.95;;;;;;;0.64;86.93;97020.15;1730256;81;21130;-92
2021/04/14 01:38:47;;;;;;;6.17;4.33;;;;;;;0.62;86.83;97023.98;1723151;82;21256;-93
2021/04/14 01:41:15;;;;;;;7.47;4.80;;;;;;;0.58;86.75;97024.89;1728645;82;21169;-94
2021/04/14 01:43:42;;;;;;;7.03;4.80;;;;;;;0.57;86.77;97025.40;1734262;82;21130;-93
2021/04/14 01:46:09;;;;;;;6.87;4.85;;;;;;;0.45;86.91;97005.36;1724358;82;21279;-91
2021/04/14 01:48:36;;;;;;;7.00;4.75;;;;;;;0.53;86.72;97016.36;1728138;82;21176;-93
2021/04/14 01:51:03;;;;;;;6.83;4.55;;;;;;;0.53;86.76;97015.05;1729277;80;21177;-92
2021/04/14 01:53:30;;;;;;;6.10;5.05;;;;;;;0.54;86.74;97014.55;1719310;82;21135;-91
2021/04/14 01:55:58;;;;;;;5.30;3.62;;;;;;;0.53;86.72;97017.66;1720831;82;21134;-92
2021/04/14 01:58:26;;;;;;;6.70;4.55;;;;;;;0.48;86.68;97012.27;1718343;82;21174;-91
2021/04/14 02:00:59;;;;;;;6.33;4.03;;;;;;;0.43;86.63;97010.78;1729767;82;21119;-91
2021/04/14 02:03:30;;;;;;;6.55;4.67;;;;;;;0.44;86.71;97010.28;1731254;82;21144;-91
2021/04/14 02:05:57;;;;;;;5.85;4.05;;;;;;;0.42;86.71;97016.98;1738123;82;21133;-91
2021/04/14 02:08:25;;;;;;;5.80;3.58;;;;;;;0.42;86.76;97005.23;1743521;82;21481;-91
2021/04/14 02:10:53;;;;;;;5.25;4.05;;;;;;;0.43;86.79;97015.20;1724176;82;21097;-92
2021/04/14 02:13:24;;;;;;;5.42;4.10;;;;;;;0.42;86.84;97003.94;1720648;82;21506;-92
2021/04/14 02:15:53;;;;;;;5.97;4.22;;;;;;;0.42;86.86;97006.55;1725538;82;21262;-91
2021/04/14 02:18:21;;;;;;;5.30;4.35;;;;;;;0.43;86.91;97008.68;1723030;82;21639;-93
2021/04/14 02:20:50;;;;;;;5.80;4.03;;;;;;;0.40;86.83;97006.45;1716494;82;21555;-91
2021/04/14 02:23:28;;;;;;;6.42;4.30;;;;;;;0.36;86.81;97009.18;1714050;82;21147;-92
2021/04/14 02:26:03;;;;;;;4.67;3.75;;;;;;;0.35;86.87;97005.77;1732520;82;21125;-92
2021/04/14 02:28:30;;;;;;;5.78;4.78;;;;;;;0.37;87.14;97002.95;1720770;82;21122;-91
2021/04/14 02:30:57;;;;;;;7.25;4.60;;;;;;;0.37;87.14;97002.95;1738073;82;21166;-93
2021/04/14 02:33:26;;;;;;;4.83;4.03;;;;;;;0.40;87.03;96999.43;1722807;82;21520;-92
2021/04/14 02:35:55;;;;;;;7.37;5.17;;;;;;;0.40;86.93;97000.73;1712537;82;21147;-92
2021/04/14 02:38:24;;;;;;;6.78;3.87;;;;;;;0.39;86.93;97003.05;1723609;82;21307;-92
2021/04/14 02:40:52;;;;;;;7.00;4.05;;;;;;;0.38;86.94;96998.84;1734466;80;21144;-92
2021/04/14 02:43:21;;;;;;;7.33;4.80;;;;;;;0.40;86.95;96999.94;1716907;83;21119;-91
2021/04/14 02:45:48;;;;;;;8.15;5.50;;;;;;;0.38;86.95;96993.62;1719781;82;21501;-92
2021/04/14 02:48:17;;;;;;;5.58;3.90;;;;;;;0.40;86.92;96992.11;1722268;82;21196;-91
2021/04/14 02:50:44;;;;;;;6.62;4.28;;;;;;;0.40;86.89;96999.43;1724425;82;21629;-91
2021/04/14 02:53:12;;;;;;;5.80;4.22;;;;;;;0.39;86.88;96994.42;1734836;82;21160;-91
2021/04/14 02:55:40;;;;;;;5.87;4.15;;;;;;;0.39;86.86;96986.59;1723499;82;21560;-91
2021/04/14 02:58:07;;;;;;;5.92;3.90;;;;;;;0.38;86.83;96986.30;1740086;82;21109;-91
2021/04/14 03:00:34;;;;;;;4.37;3.40;;;;;;;0.30;86.85;96975.60;1722781;82;21183;-92
2021/04/14 03:03:02;;;;;;;4.65;3.83;;;;;;;0.30;86.85;96975.60;1739074;82;21249;-92
2021/04/14 03:05:33;;;;;;;3.90;3.37;;;;;;;0.36;86.79;96989.11;1735159;82;21135;-92
2021/04/14 03:08:01;;;;;;;4.60;3.58;;;;;;;0.36;86.77;96994.33;1751470;81;21457;-92
2021/04/14 03:10:32;;;;;;;4.00;3.08;;;;;;;0.38;86.83;96993.62;1725573;82;21641;-92
2021/04/14 03:13:01;;;;;;;5.05;3.77;;;;;;;0.37;86.73;96988.61;1719830;82;21129;-90
2021/04/14 03:15:33;;;;;;;5.45;3.77;;;;;;;0.37;86.73;96988.61;1739606;82;21154;-93
2021/04/14 03:18:00;;;;;;;5.37;3.25;;;;;;;0.37;86.81;96990.72;1727833;82;21511;-91
2021/04/14 03:20:28;;;;;;;5.62;2.87;;;;;;;0.39;86.69;96994.42;1732941;80;21117;-90
2021/04/14 03:22:56;;;;;;;4.35;3.42;;;;;;;0.41;86.77;96989.30;1721161;82;21140;-90
2021/04/14 03:25:27;;;;;;;5.55;3.62;;;;;;;0.37;86.60;96993.33;1723827;82;21284;-90
2021/04/14 03:27:55;;;;;;;4.58;3.22;;;;;;;0.34;86.59;96990.33;1740174;82;21124;-91
2021/04/14 03:30:23;;;;;;;5.15;3.67;;;;;;;0.31;86.59;96986.33;1720431;82;21140;-91
2021/04/14 03:32:51;;;;;;;5.80;3.65;;;;;;;0.29;86.73;96993.56;1721169;82;21150;-91
2021/04/14 03:35:21;;;;;;;5.53;3.60;;;;;;;0.25;86.86;96989.23;1733275;82;21172;-91
2021/04/14 03:37:48;;;;;;;6.37;4.28;;;;;;;0.25;87.03;96985.31;1723592;82;21639;-91
2021/04/14 03:40:18;;;;;;;6.60;3.80;;;;;;;0.25;87.07;96988.43;1725554;82;21319;-91
2021/04/14 03:42:46;;;;;;;3.10;2.70;;;;;;;0.28;87.19;96988.84;1712595;82;21136;-90
2021/04/14 03:45:19;;;;;;;5.70;4.12;;;;;;;0.28;87.08;96988.84;1724892;82;21234;-91
2021/04/14 03:47:46;;;;;;;6.85;4.67;;;;;;;0.28;87.05;96988.84;1721677;82;21177;-90
2021/04/14 03:50:18;;;;;;;8.18;5.12;;;;;;;0.29;87.02;96991.75;1737739;80;21728;-91
2021/04/14 03:52:45;;;;;;;7.67;5.08;;;;;;;0.33;87.04;96988.23;1731737;82;21259;-90
2021/04/14 03:55:16;;;;;;;6.42;5.03;;;;;;;0.34;87.05;96991.63;1719869;82;21110;-91
2021/04/14 03:57:43;;;;;;;6.87;5.12;;;;;;;0.37;87.03;96989.92;1712314;82;21507;-91
2021/04/14 04:00:29;;;;;;;8.10;5.17;;;;;;;0.38;87.04;96994.12;1729524;82;21117;-92
2021/04/14 04:02:56;;;;;;;5.37;4.72;;;;;;;0.36;86.98;96992.23;1725048;82;21620;-91
2021/04/14 04:05:23;;;;;;;6.95;4.62;;;;;;;0.36;87.01;96994.84;1738924;82;21448;-91
2021/04/14 04:07:50;;;;;;;8.18;5.62;;;;;;;0.41;87.11;96998.93;1736440;82;21152;-92
2021/04/14 04:10:18;;;;;;;7.33;4.65;;;;;;;0.45;87.07;96996.23;1722682;82;21180;-91
2021/04/14 04:12:45;;;;;;;4.00;3.17;;;;;;;0.46;86.97;96996.02;1741933;82;21110;-92
2021/04/14 04:15:13;;;;;;;4.60;3.27;;;;;;;0.51;86.98;96996.20;1717161;82;21514;-91
2021/04/14 04:17:41;;;;;;;4.08;2.87;;;;;;;0.47;86.77;96992.41;1727557;82;21503;-91
2021/04/14 04:20:12;;;;;;;5.37;3.08;;;;;;;0.40;86.72;96995.52;1740366;82;21111;-91
2021/04/14 04:22:39;;;;;;;3.17;2.40;;;;;;;0.39;86.71;97000.44;1727498;82;21118;-91
2021/04/14 04:25:08;;;;;;;5.78;4.12;;;;;;;0.42;86.71;97001.33;1707906;83;21523;-92
2021/04/14 04:27:36;;;;;;;5.00;3.62;;;;;;;0.37;86.73;97008.17;1716504;83;21482;-91
2021/04/14 04:30:07;;;;;;;5.42;2.72;;;;;;;0.35;86.78;97010.98;1690985;83;21157;-90
2021/04/14 04:32:35;;;;;;;5.58;2.70;;;;;;;0.39;86.80;97010.88;1686375;84;21155;-91
2021/04/14 04:35:07;;;;;;;3.15;2.08;;;;;;;0.43;86.87;97013.39;1693323;84;21125;-91
2021/04/14 04:37:34;;;;;;;2.75;2.30;;;;;;;0.48;86.86;97008.36;1696354;83;21177;-93
2021/04/14 04:40:03;;;;;;;3.67;2.60;;;;;;;0.47;86.60;97011.97;1709681;82;21192;-92
2021/04/14 04:42:30;;;;;;;4.45;2.83;;;;;;;0.48;86.56;97009.66;1711111;83;21520;-91
2021/04/14 04:44:58;;;;;;;4.62;2.72;;;;;;;0.48;86.24;97012.27;1717963;83;21313;-91
2021/04/14 04:47:25;;;;;;;5.60;3.08;;;;;;;0.48;86.24;97012.27;1710577;83;21140;-91
2021/04/14 04:49:52;;;;;;;4.20;2.85;;;;;;;0.53;86.43;97010.34;1704685;83;21133;-92
2021/04/14 04:52:20;;;;;;;4.75;2.25;;;;;;;0.62;86.50;97007.02;1713534;83;21140;-92
2021/04/14 04:54:47;;;;;;;4.92;2.83;;;;;;;0.68;86.47;97015.31;1705105;83;21195;-91
2021/04/14 04:57:14;;;;;;;3.45;2.50;;;;;;;0.73;86.46;97009.00;1698651;83;21162;-92
2021/04/14 04:59:41;;;;;;;3.85;2.85;;;;;;;0.76;86.33;97019.02;1701621;83;21120;-93
2021/04/14 05:02:09;;;;;;;4.35;2.72;;;;;;;0.75;86.24;97028.66;1699059;83;21161;-92
2021/04/14 05:04:36;;;;;;;4.87;3.25;;;;;;;0.70;86.11;97025.84;1700385;83;21158;-92
2021/04/14 05:07:03;;;;;;;2.90;2.58;;;;;;;0.67;85.96;97030.67;1714375;83;21256;-93
2021/04/14 05:09:30;;;;;;;4.15;3.02;;;;;;;0.57;86.01;97006.34;1694365;83;21504;-92
2021/04/14 05:11:57;;;;;;;6.87;3.50;;;;;;;0.57;86.01;97006.34;1690342;83;21122;-92
2021/04/14 05:14:24;;;;;;;4.20;3.47;;;;;;;0.66;86.02;97029.88;1710750;83;21132;-93
2021/04/14 05:16:51;;;;;;;5.72;3.75;;;;;;;0.67;86.08;97030.67;1711177;83;21506;-92
2021/04/14 05:19:18;;;;;;;6.62;4.42;;;;;;;0.68;86.11;97036.98;1717252;83;21240;-92
2021/04/14 05:21:46;;;;;;;4.78;3.22;;;;;;;0.71;86.04;97033.19;1707654;83;21134;-94
2021/04/14 05:24:14;;;;;;;3.98;2.98;;;;;;;0.69;86.07;97046.42;1706074;83;21133;-94
2021/04/14 05:26:41;;;;;;;4.35;2.72;;;;;;;0.69;86.07;97046.42;1702233;83;21164;-94
2021/04/14 05:29:08;;;;;;;4.08;2.80;;;;;;;0.69;86.23;97034.67;1697153;83;21156;-92
2021/04/14 05:31:40;;;;;;;4.45;3.22;;;;;;;0.70;86.36;97045.91;1691800;83;21487;-92
2021/04/14 05:34:08;;;;;;;3.55;2.87;;;;;;;0.72;86.43;97039.51;1692318;83;21612;-94
2021/04/14 05:36:37;;;;;;;4.62;2.90;;;;;;;0.63;86.07;97020.36;1701775;83;21158;-93
2021/04/14 05:39:06;;;;;;;5.50;3.10;;;;;;;0.63;86.07;97020.36;1698914;82;21165;-93
2021/04/14 05:41:33;;;;;;;4.55;2.55;;;;;;;0.66;86.07;97018.64;1699713;83;21197;-92
2021/04/14 05:44:00;;;;;;;5.35;3.08;;;;;;;0.66;86.07;97018.64;1697925;83;21152;-94
2021/04/14 05:46:27;;;;;;;4.28;2.80;;;;;;;0.82;86.02;97035.14;1693979;83;21500;-92
2021/04/14 05:48:55;;;;;;;3.33;2.65;;;;;;;0.86;85.79;97037.16;1708112;83;21134;-93
2021/04/14 05:51:26;;;;;;;4.37;3.15;;;;;;;0.86;85.79;97037.16;1701689;83;21142;-94
2021/04/14 05:53:54;;;;;;;3.00;2.42;;;;;;;0.87;85.55;97036.66;1675862;84;21505;-94
2021/04/14 05:56:24;;;;;;;4.35;2.80;;;;;;;0.93;85.52;97030.59;1688860;84;21510;-92
2021/04/14 05:58:51;;;;;;;4.10;3.08;;;;;;;0.98;85.40;97036.49;1675958;84;21145;-93
2021/04/14 06:01:23;;;;;;;6.42;3.20;;;;;;;0.99;85.39;97027.68;1675860;85;21503;-93
2021/04/14 06:03:53;;;;;;;5.97;3.50;;;;;;;1.09;85.49;97038.46;1680830;84;21486;-93
2021/04/14 06:06:21;;;;;;;4.20;3.40;;;;;;;1.09;85.49;97038.46;1680309;84;21150;-92
2021/04/14 06:08:48;;;;;;;4.12;3.30;;;;;;;1.06;85.47;97024.02;1714235;83;21490;-93
2021/04/14 06:11:15;;;;;;;4.85;3.05;;;;;;;1.24;85.53;97047.34;1705267;83;21182;-92
2021/04/14 06:13:44;;;;;;;3.37;2.50;;;;;;;1.32;85.42;97051.02;1712982;83;21514;-91
2021/04/14 06:16:15;;;;;;;3.90;2.50;;;;;;;1.39;84.89;97045.25;1704113;83;21202;-91
2021/04/14 06:18:45;;;;;;;3.20;2.22;;;;;;;1.39;84.89;97045.25;1695965;83;21483;-93
2021/04/14 06:21:15;;;;;;;2.62;2.25;;;;;;;1.36;84.70;97049.09;1709688;82;21548;-93
2021/04/14 06:23:45;;;;;;;2.30;2.00;;;;;;;1.35;84.51;97051.41;1690193;83;21107;-93
2021/04/14 06:26:28;;;;;;;2.50;2.08;;;;;;;1.33;84.04;97045.59;1683524;83;21139;-94
2021/04/14 06:28:55;;;;;;;2.90;2.40;;;;;;;1.33;84.11;97051.32;1712114;82;21162;-93
2021/04/14 06:31:25;;;;;;;3.25;2.22;;;;;;;1.33;83.92;97048.70;1720840;83;21108;-92
2021/04/14 06:33:55;;;;;;;3.30;2.30;;;;;;;1.36;83.80;97056.12;1679415;84;21147;-92
2021/04/14 06:36:23;;;;;;;3.27;2.15;;;;;;;1.35;83.78;97059.75;1711427;83;21132;-94
2021/04/14 06:38:52;;;;;;;2.72;1.77;;;;;;;1.42;83.77;97056.11;1699809;84;21111;-92
2021/04/14 06:42:08;;;;;;;3.02;2.05;;;;;;;1.41;83.47;97053.70;1698770;83;21108;-93
2021/04/14 06:44:50;;;;;;;4.75;2.62;;;;;;;1.56;83.75;97052.91;1693728;83;21136;-92
2021/04/14 06:47:38;;;;;;;5.62;3.33;;;;;;;1.75;83.81;97041.53;1707617;82;21139;-93
2021/04/14 06:50:20;;;;;;;5.25;3.22;;;;;;;1.79;83.60;97049.23;1703956;83;21178;-94
2021/04/14 06:53:20;;;;;;;7.35;3.80;;;;;;;1.87;83.54;97046.08;1664271;85;21234;-94
2021/04/14 06:55:59;;;;;;;5.58;3.52;;;;;;;1.90;83.24;97049.06;1695699;84;21244;-94
2021/04/14 06:58:49;;;;;;;4.40;2.80;;;;;;;1.95;83.15;97057.57;1684366;84;21159;-93
2021/04/14 07:01:24;;;;;;;4.53;2.67;;;;;;;1.95;82.94;97062.30;1664053;84;21139;-93
2021/04/14 07:04:14;;;;;;;5.78;3.15;;;;;;;2.01;82.85;97058.05;1692637;84;21502;-93
2021/04/14 07:06:45;;;;;;;3.15;1.90;;;;;;;2.07;82.79;97049.34;1651295;85;21151;-92
2021/04/14 07:09:34;;;;;;;4.08;2.10;;;;;;;2.07;82.06;97055.37;1697054;84;21187;-94
2021/04/14 07:12:06;;;;;;;1.80;1.65;;;;;;;2.10;82.42;97060.67;1705502;83;21277;-94
2021/04/14 07:14:35;;;;;;;3.40;2.10;;;;;;;2.16;82.13;97059.84;1693722;83;21103;-94
2021/04/14 07:17:16;;;;;;;2.20;1.70;;;;;;;2.11;81.76;97055.73;1682837;85;21495;-94
2021/04/14 07:19:49;;;;;;;2.77;1.90;;;;;;;2.04;81.61;97062.84;1669145;84;21156;-94
2021/04/14 07:22:22;;;;;;;3.25;2.33;;;;;;;2.03;81.66;97060.73;1682604;83;21166;-94
2021/04/14 07:24:54;;;;;;;3.47;2.30;;;;;;;2.03;81.71;97062.05;1665402;85;21132;-95
2021/04/14 07:27:33;;;;;;;3.22;2.20;;;;;;;2.18;82.02;97062.23;1704577;84;21156;-93
2021/04/14 07:30:17;;;;;;;3.50;2.65;;;;;;;2.38;82.17;97061.05;1673213;84;21189;-93
2021/04/14 07:33:11;;;;;;;4.08;2.72;;;;;;;2.55;82.00;97056.08;1676597;84;21277;-95
2021/04/14 07:35:53;;;;;;;4.20;2.80;;;;;;;2.65;81.70;97063.42;1662668;84;21562;-92
2021/04/14 07:38:28;;;;;;;3.40;2.30;;;;;;;2.66;81.47;97063.20;1692855;84;21161;-92
2021/04/14 07:41:36;;;;;;;4.55;2.55;;;;;;;2.66;80.93;97069.73;1715857;83;21123;-92
2021/04/14 07:44:09;;;;;;;3.95;1.72;;;;;;;2.67;81.01;97061.38;1710224;83;21161;-92
2021/04/14 07:46:40;;;;;;;3.45;1.98;;;;;;;2.69;80.72;97058.06;1696298;84;21161;-92
2021/04/14 07:49:11;;;;;;;2.05;1.67;;;;;;;2.63;79.90;97068.07;1698393;84;21136;-91
2021/04/14 07:51:39;;;;;;;2.47;1.90;;;;;;;2.50;79.39;97065.06;1702863;82;21137;-91
2021/04/14 07:54:14;;;;;;;3.37;2.30;;;;;;;2.58;79.72;97065.31;1678847;83;21506;-92
2021/04/14 07:56:50;;;;;;;2.12;1.67;;;;;;;2.75;80.18;97065.03;1698079;83;21505;-91
2021/04/14 07:59:31;;;;;;;2.47;1.90;;;;;;;3.01;80.26;97069.70;1692377;83;21152;-90
2021/04/14 08:02:07;;;;;;;2.52;1.60;;;;;;;3.18;79.46;97069.41;1690345;83;21176;-92
2021/04/14 08:04:42;;;;;;;3.50;2.52;;;;;;;3.27;79.39;97068.89;1688800;83;21134;-94
2021/04/14 08:07:25;;;;;;;3.70;2.10;;;;;;;3.41;79.40;97071.35;1700489;83;21170;-93
2021/04/14 08:10:00;;;;;;;2.90;2.12;;;;;;;3.44;78.58;97066.46;1694961;83;21204;-93
2021/04/14 08:12:35;;;;;;;2.98;2.17;;;;;;;3.23;78.29;97074.77;1686396;85;21210;-93
2021/04/14 08:15:32;;;;;;;4.15;2.60;;;;;;;3.37;78.78;97070.97;1687528;83;21142;-94
2021/04/14 08:18:11;;;;;;;2.67;2.00;;;;;;;3.44;78.53;97073.02;1692904;84;21137;-94
2021/04/14 08:20:41;;;;;;;2.65;2.25;;;;;;;3.83;79.08;97068.27;1686337;85;21533;-93
2021/04/14 08:23:22;;;;;;;4.92;2.40;;;;;;;3.92;78.20;97073.46;1692228;84;21157;-92
2021/04/14 08:25:57;;;;;;;3.55;2.42;;;;;;;4.03;78.32;97074.52;1686449;84;21190;-91
2021/04/14 08:28:41;;;;;;;3.08;2.08;;;;;;;4.10;77.27;97069.48;1686369;84;21130;-91
2021/04/14 08:31:16;;;;;;;1.92;1.32;;;;;;;4.05;77.44;97073.78;1686265;84;21256;-91
2021/04/14 08:33:44;;;;;;;2.92;1.70;;;;;;;3.76;74.04;97064.41;1686231;83;21174;-92
2021/04/14 08:36:23;;;;;;;3.95;2.05;;;;;;;3.22;75.44;97077.11;1686217;84;21194;-92
2021/04/14 08:38:51;;;;;;;3.55;2.10;;;;;;;3.34;76.55;97075.35;1696652;83;21180;-91
2021/04/14 08:41:25;;;;;;;2.75;1.62;;;;;;;3.57;76.73;97080.71;1686262;84;21183;-92
2021/04/14 08:43:53;;;;;;;3.52;2.20;;;;;;;3.70;75.53;97071.07;1686302;84;21492;-90
2021/04/14 08:46:34;;;;;;;3.52;2.30;;;;;;;3.81;75.74;97057.20;1687493;84;21159;-90
2021/04/14 08:49:21;;;;;;;2.58;1.82;;;;;;;3.82;75.19;97064.05;1684503;84;21131;-90
2021/04/14 08:51:53;;;;;;;2.77;2.27;;;;;;;3.98;75.07;97062.09;1704773;82;21137;-92
2021/04/14 08:54:28;;;;;;;3.83;2.20;;;;;;;3.89;74.94;97060.80;1687688;84;21501;-91
2021/04/14 08:56:57;;;;;;;2.72;1.90;;;;;;;4.10;75.30;97068.16;1686097;84;21137;-91
2021/04/14 08:59:27;;;;;;;1.90;1.67;;;;;;;4.37;75.43;97060.67;1642849;85;21178;-89
2021/04/14 09:01:57;;;;;;;2.55;1.72;;;;;;;4.58;75.22;97059.30;1686054;84;21157;-90
2021/04/14 09:04:26;;;;;;;4.22;2.80;;;;;;;4.66;74.32;97056.34;1686069;83;21161;-91
2021/04/14 09:06:55;;;;;;;3.05;2.25;;;;;;;4.16;72.99;97061.20;1708192;84;21519;-91
2021/04/14 09:09:28;;;;;;;4.08;2.58;;;;;;;3.54;72.96;97066.73;1670278;85;21131;-91
2021/04/14 09:12:06;;;;;;;4.60;2.47;;;;;;;3.38;74.18;97067.84;1656928;85;21146;-91
2021/04/14 09:14:36;;;;;;;4.08;2.30;;;;;;;3.51;75.35;97068.47;1668385;85;21499;-90
2021/04/14 09:17:19;;;;;;;3.10;2.27;;;;;;;3.86;75.75;97064.67;1653783;85;21176;-90
2021/04/14 09:19:52;;;;;;;3.60;2.20;;;;;;;4.07;75.19;97069.10;1683624;84;21146;-90
2021/04/14 09:22:27;;;;;;;3.45;2.30;;;;;;;4.07;74.65;97068.59;1706980;84;21309;-91
2021/04/14 09:25:08;;;;;;;4.08;2.15;;;;;;;4.01;74.49;97068.19;1702775;83;21096;-90
2021/04/14 09:27:44;;;;;;;4.78;3.02;;;;;;;4.11;74.47;97072.38;1708576;83;21135;-91
2021/04/14 09:30:28;;;;;;;3.30;2.92;;;;;;;4.24;74.69;97066.65;1694133;83;21499;-91
2021/04/14 09:33:07;;;;;;;4.37;2.92;;;;;;;4.24;73.94;97066.13;1685901;84;21118;-92
2021/04/14 09:35:39;;;;;;;3.15;2.60;;;;;;;4.17;74.39;97060.17;1671848;84;21269;-90
2021/04/14 09:38:23;;;;;;;4.17;2.65;;;;;;;4.26;73.90;97061.45;1686541;84;21177;-90
2021/04/14 09:40:51;;;;;;;2.05;1.85;;;;;;;4.23;73.68;97058.49;1695781;83;21192;-91
2021/04/14 09:43:30;;;;;;;4.08;2.90;;;;;;;4.04;72.96;97055.93;1694781;83;21507;-90
2021/04/14 09:46:07;;;;;;;2.47;2.25;;;;;;;4.12;73.86;97058.23;1681480;83;21111;-91
2021/04/14 09:48:48;;;;;;;3.17;2.17;;;;;;;3.86;72.24;97056.02;1711125;83;21123;-92
2021/04/14 09:51:23;;;;;;;7.12;4.60;;;;;;;3.74;73.32;97055.97;1712574;83;21571;-92
2021/04/14 09:53:57;;;;;;;3.20;2.20;;;;;;;3.61;72.94;97057.98;1700867;82;21114;-91
2021/04/14 09:56:25;;;;;;;4.17;2.50;;;;;;;3.42;73.18;97056.72;1686940;84;21562;-91
2021/04/14 09:59:09;;;;;;;2.30;1.60;;;;;;;3.46;73.79;97063.11;1678388;84;21138;-91
2021/04/14 10:01:40;;;;;;;2.67;2.10;;;;;;;3.56;73.36;97052.90;1659877;85;21212;-92
2021/04/14 10:04:22;;;;;;;10.32;5.25;;;;;;;3.48;73.52;97056.33;1707599;83;21522;-91
2021/04/14 10:07:03;;;;;;;4.42;3.33;;;;;;;3.61;74.10;97057.47;1721412;83;21123;-90
2021/04/14 10:09:36;;;;;;;5.33;3.85;;;;;;;3.61;73.65;97060.08;1697355;84;21130;-92
2021/04/14 10:12:20;;;;;;;4.80;3.10;;;;;;;3.70;74.17;97047.47;1693341;84;21204;-90
2021/04/14 10:14:55;;;;;;;4.53;2.60;;;;;;;3.68;73.72;97054.25;1695779;83;21153;-90
2021/04/14 10:17:26;;;;;;;3.85;2.02;;;;;;;3.79;74.22;97057.40;1696543;84;21131;-89
2021/04/14 10:19:55;;;;;;;3.95;1.98;;;;;;;3.77;73.52;97059.45;1702480;83;21178;-90
2021/04/14 10:22:27;;;;;;;3.75;2.42;;;;;;;3.74;73.70;97060.42;1696843;84;21471;-90
2021/04/14 10:25:21;;;;;;;3.20;2.12;;;;;;;3.89;74.29;97058.17;1691991;84;21187;-90
2021/04/14 10:27:53;;;;;;;3.67;2.25;;;;;;;4.00;74.24;97056.10;1703228;84;21129;-92
2021/04/14 10:30:24;;;;;;;2.55;2.05;;;;;;;4.07;73.91;97056.78;1699759;83;21153;-90
2021/04/14 10:32:52;;;;;;;2.65;1.80;;;;;;;3.93;73.29;97048.83;1706318;84;21467;-90
2021/04/14 10:35:26;;;;;;;2.62;1.98;;;;;;;3.38;72.20;97054.26;1696569;83;21153;-91
2021/04/14 10:37:55;;;;;;;3.05;1.80;;;;;;;3.37;73.37;97054.45;1689098;84;21115;-90
2021/04/14 10:40:28;;;;;;;2.85;1.82;;;;;;;3.62;73.98;97053.02;1702023;82;21137;-90
2021/04/14 10:42:57;;;;;;;2.70;2.02;;;;;;;3.89;74.20;97052.94;1702000;83;21140;-90
2021/04/14 10:45:27;;;;;;;3.27;2.62;;;;;;;3.96;73.54;97039.22;1707233;83;21149;-91
2021/04/14 10:47:57;;;;;;;4.05;2.85;;;;;;;4.03;73.36;97049.59;1698745;83;21125;-91
2021/04/14 10:50:31;;;;;;;2.12;1.77;;;;;;;3.99;73.06;97046.63;1710285;83;21129;-91
2021/04/14 10:53:10;;;;;;;2.22;2.02;;;;;;;4.05;72.59;97039.67;1707666;83;21517;-92
2021/04/14 10:55:48;;;;;;;1.98;1.77;;;;;;;3.97;72.41;97044.75;1714972;83;21114;-91
2021/04/14 10:58:25;;;;;;;1.57;1.32;;;;;;;4.12;73.02;97047.74;1674580;85;21590;-91
2021/04/14 11:00:53;;;;;;;2.27;1.60;;;;;;;4.00;72.61;97044.81;1664172;84;21125;-90
2021/04/14 11:03:24;;;;;;;2.12;1.80;;;;;;;4.07;72.96;97046.29;1668732;85;21622;-90
2021/04/14 11:05:57;;;;;;;2.37;1.80;;;;;;;4.15;72.74;97039.92;1664715;85;21219;-89
2021/04/14 11:08:28;;;;;;;2.45;1.92;;;;;;;4.23;72.59;97042.74;1647997;85;21155;-90
2021/04/14 11:10:59;;;;;;;3.05;2.22;;;;;;;4.15;71.08;97043.86;1667402;85;21178;-92
2021/04/14 11:13:31;;;;;;;12.43;6.35;;;;;;;3.50;71.40;97041.97;1671283;84;21285;-91
2021/04/14 11:15:59;;;;;;;4.35;2.20;;;;;;;2.96;72.46;97042.36;1683801;84;21173;-93
2021/04/14 11:18:36;;;;;;;3.10;2.00;;;;;;;2.76;73.08;97050.93;1686586;84;21159;-91
2021/04/14 11:21:09;;;;;;;2.90;2.02;;;;;;;2.88;73.47;97045.27;1661730;85;21152;-92
2021/04/14 11:23:41;;;;;;;2.83;1.95;;;;;;;2.91;73.68;97055.80;1667580;85;21159;-92
2021/04/14 11:26:19;;;;;;;2.10;1.80;;;;;;;3.02;73.82;97045.91;1669536;85;21169;-93
2021/04/14 11:28:56;;;;;;;2.30;1.85;;;;;;;3.22;73.71;97058.25;1669419;85;21770;-92
2021/04/14 11:31:43;;;;;;;3.45;2.35;;;;;;;3.31;73.32;97049.59;1690423;83;21230;-92
2021/04/14 11:34:28;;;;;;;2.47;1.95;;;;;;;3.37;73.22;97042.66;1699566;84;21158;-91
2021/04/14 11:37:09;;;;;;;4.17;2.50;;;;;;;3.44;73.20;97048.12;1708622;83;21113;-92
2021/04/14 11:53:51;;;;;;;5.70;2.92;;;;;;;2.97;73.07;97042.66;1871204;75;23384;-91
2021/04/14 11:56:41;;;;;;;3.83;2.52;;;;;;;2.98;73.52;97040.32;1830799;77;21100;-92
2021/04/14 11:59:28;;;;;;;3.63;2.23;;;;;;;3.15;73.98;97037.10;1825697;77;21467;-90
2021/04/14 12:02:21;;;;;;;3.90;2.00;;;;;;;3.26;73.89;97041.09;1826079;76;21095;-91
2021/04/14 12:05:01;;;;;;;2.83;2.08;;;;;;;3.25;73.81;97052.59;1783823;80;21130;-91
2021/04/14 12:07:29;;;;;;;4.33;2.22;;;;;;;3.26;73.82;97044.23;1790209;80;21095;-92
2021/04/14 12:09:56;;;;;;;13.48;6.83;;;;;;;3.42;74.15;97049.36;1794720;79;21794;-93
2021/04/14 12:12:25;;;;;;;27.80;12.28;;;;;;;3.60;73.83;97044.58;1787907;79;21135;-92
2021/04/14 12:14:53;;;;;;;6.92;3.67;;;;;;;3.43;72.71;97047.03;1770855;80;21115;-90
2021/04/14 12:17:22;;;;;;;4.62;2.80;;;;;;;3.43;72.89;97039.17;1774967;79;21131;-91